sensor_id;sensor_type;location;lat;lon;timestamp;temperature;humidity
51825;DHT22;37879;52.986;6.282;2022-10-26T00:02:20;10.10;99.90
51825;DHT22;37879;52.986;6.282;2022-10-26T00:04:46;10.10;99.90
51825;DHT22;37879;52.986;6.282;2022-10-26T00:07:12;10.10;99.90
51825;DHT22;37879;52.986;6.282;2022-10-26T00:09:38;10.00;99.90
51825;DHT22;37879;52.986;6.282;2022-10-26T00:12:03;10.00;99.90
51825;DHT22;37879;52.986;6.282;2022-10-26T00:14:29;10.00;99.90
51825;DHT22;37879;52.986;6.282;2022-10-26T00:16:55;10.00;99.90
51825;DHT22;37879;52.986;6.282;2022-10-26T00:19:21;9.90;99.90
51825;DHT22;37879;52.986;6.282;2022-10-26T00:21:46;9.90;99.90
51825;DHT22;37879;52.986;6.282;2022-10-26T00:24:12;9.90;99.90
51825;DHT22;37879;52.986;6.282;2022-10-26T00:26:39;9.90;99.90
51825;DHT22;37879;52.986;6.282;2022-10-26T00:29:04;9.90;99.90
51825;DHT22;37879;52.986;6.282;2022-10-26T00:31:30;9.80;99.90
51825;DHT22;37879;52.986;6.282;2022-10-26T00:33:56;9.80;99.90
51825;DHT22;37879;52.986;6.282;2022-10-26T00:36:23;9.80;99.90
51825;DHT22;37879;52.986;6.282;2022-10-26T00:38:51;9.80;99.90
51825;DHT22;37879;52.986;6.282;2022-10-26T00:41:20;9.80;99.90
51825;DHT22;37879;52.986;6.282;2022-10-26T00:43:46;9.70;99.90
51825;DHT22;37879;52.986;6.282;2022-10-26T00:46:31;9.70;99.90
51825;DHT22;37879;52.986;6.282;2022-10-26T00:49:04;9.70;99.90
51825;DHT22;37879;52.986;6.282;2022-10-26T00:51:37;9.90;99.90
51825;DHT22;37879;52.986;6.282;2022-10-26T00:54:07;9.70;99.90
51825;DHT22;37879;52.986;6.282;2022-10-26T00:56:33;9.60;99.90
51825;DHT22;37879;52.986;6.282;2022-10-26T00:59:03;9.60;99.90
51825;DHT22;37879;52.986;6.282;2022-10-26T01:01:31;9.60;99.90
51825;DHT22;37879;52.986;6.282;2022-10-26T01:03:59;9.60;99.90
51825;DHT22;37879;52.986;6.282;2022-10-26T01:06:27;9.60;99.90
51825;DHT22;37879;52.986;6.282;2022-10-26T01:08:53;9.50;99.90
51825;DHT22;37879;52.986;6.282;2022-10-26T01:11:19;9.50;99.90
51825;DHT22;37879;52.986;6.282;2022-10-26T01:13:45;9.50;99.90
51825;DHT22;37879;52.986;6.282;2022-10-26T01:27:33;9.50;99.90
51825;DHT22;37879;52.986;6.282;2022-10-26T01:35:31;9.40;99.90
51825;DHT22;37879;52.986;6.282;2022-10-26T01:38:08;9.30;99.90
51825;DHT22;37879;52.986;6.282;2022-10-26T01:40:39;9.30;99.90
51825;DHT22;37879;52.986;6.282;2022-10-26T01:43:09;9.30;99.90
51825;DHT22;37879;52.986;6.282;2022-10-26T01:45:38;9.20;99.90
51825;DHT22;37879;52.986;6.282;2022-10-26T01:48:08;9.20;99.90
51825;DHT22;37879;52.986;6.282;2022-10-26T01:50:34;9.20;99.90
51825;DHT22;37879;52.986;6.282;2022-10-26T01:53:00;9.20;99.90
51825;DHT22;37879;52.986;6.282;2022-10-26T02:04:29;9.10;99.90
51825;DHT22;37879;52.986;6.282;2022-10-26T02:10:03;9.10;99.90
51825;DHT22;37879;52.986;6.282;2022-10-26T02:13:09;9.10;99.90
51825;DHT22;37879;52.986;6.282;2022-10-26T02:15:52;9.20;99.90
51825;DHT22;37879;52.986;6.282;2022-10-26T02:18:24;9.10;99.90
51825;DHT22;37879;52.986;6.282;2022-10-26T02:20:56;9.10;99.90
51825;DHT22;37879;52.986;6.282;2022-10-26T02:23:23;9.10;99.90
51825;DHT22;37879;52.986;6.282;2022-10-26T02:25:56;9.10;99.90
51825;DHT22;37879;52.986;6.282;2022-10-26T02:28:27;9.00;99.90
51825;DHT22;37879;52.986;6.282;2022-10-26T02:30:57;9.00;99.90
51825;DHT22;37879;52.986;6.282;2022-10-26T02:33:24;9.00;99.90
51825;DHT22;37879;52.986;6.282;2022-10-26T02:35:51;9.00;99.90
51825;DHT22;37879;52.986;6.282;2022-10-26T02:38:19;9.00;99.90
51825;DHT22;37879;52.986;6.282;2022-10-26T02:40:47;9.00;99.90
51825;DHT22;37879;52.986;6.282;2022-10-26T02:43:16;9.00;99.90
51825;DHT22;37879;52.986;6.282;2022-10-26T02:45:50;9.00;99.90
51825;DHT22;37879;52.986;6.282;2022-10-26T02:48:17;9.00;99.90
51825;DHT22;37879;52.986;6.282;2022-10-26T02:51:16;9.00;99.90
51825;DHT22;37879;52.986;6.282;2022-10-26T02:53:57;9.00;99.90
51825;DHT22;37879;52.986;6.282;2022-10-26T02:59:11;9.00;99.90
51825;DHT22;37879;52.986;6.282;2022-10-26T03:01:39;9.00;99.90
51825;DHT22;37879;52.986;6.282;2022-10-26T03:04:06;9.00;99.90
51825;DHT22;37879;52.986;6.282;2022-10-26T03:06:32;9.00;99.90
51825;DHT22;37879;52.986;6.282;2022-10-26T03:08:57;9.00;99.90
51825;DHT22;37879;52.986;6.282;2022-10-26T03:11:23;9.10;99.90
51825;DHT22;37879;52.986;6.282;2022-10-26T03:13:49;9.00;99.90
51825;DHT22;37879;52.986;6.282;2022-10-26T03:16:14;9.00;99.90
51825;DHT22;37879;52.986;6.282;2022-10-26T03:18:40;9.00;99.90
51825;DHT22;37879;52.986;6.282;2022-10-26T03:21:06;9.00;99.90
51825;DHT22;37879;52.986;6.282;2022-10-26T03:23:31;9.00;99.90
51825;DHT22;37879;52.986;6.282;2022-10-26T03:25:58;9.00;99.90
51825;DHT22;37879;52.986;6.282;2022-10-26T03:28:24;9.10;99.90
51825;DHT22;37879;52.986;6.282;2022-10-26T03:30:50;9.00;99.90
51825;DHT22;37879;52.986;6.282;2022-10-26T03:33:16;9.00;99.90
51825;DHT22;37879;52.986;6.282;2022-10-26T03:35:41;9.20;99.90
51825;DHT22;37879;52.986;6.282;2022-10-26T03:38:07;9.00;99.90
51825;DHT22;37879;52.986;6.282;2022-10-26T03:40:32;9.10;99.90
51825;DHT22;37879;52.986;6.282;2022-10-26T03:43:00;9.10;99.90
51825;DHT22;37879;52.986;6.282;2022-10-26T03:45:26;9.10;99.90
51825;DHT22;37879;52.986;6.282;2022-10-26T03:47:52;9.10;99.90
51825;DHT22;37879;52.986;6.282;2022-10-26T03:50:19;9.50;99.90
51825;DHT22;37879;52.986;6.282;2022-10-26T03:52:46;9.10;99.90
51825;DHT22;37879;52.986;6.282;2022-10-26T03:55:12;9.10;99.90
51825;DHT22;37879;52.986;6.282;2022-10-26T03:57:42;9.00;99.90
51825;DHT22;37879;52.986;6.282;2022-10-26T04:00:14;9.00;99.90
51825;DHT22;37879;52.986;6.282;2022-10-26T04:02:41;9.00;99.90
51825;DHT22;37879;52.986;6.282;2022-10-26T04:05:07;9.00;99.90
51825;DHT22;37879;52.986;6.282;2022-10-26T04:07:33;9.00;99.90
51825;DHT22;37879;52.986;6.282;2022-10-26T04:09:59;9.00;99.90
51825;DHT22;37879;52.986;6.282;2022-10-26T04:12:24;9.00;99.90
51825;DHT22;37879;52.986;6.282;2022-10-26T04:14:50;9.00;99.90
51825;DHT22;37879;52.986;6.282;2022-10-26T04:17:16;9.10;99.90
51825;DHT22;37879;52.986;6.282;2022-10-26T04:19:42;9.10;99.90
51825;DHT22;37879;52.986;6.282;2022-10-26T04:22:07;9.10;99.90
51825;DHT22;37879;52.986;6.282;2022-10-26T04:24:33;9.10;99.90
51825;DHT22;37879;52.986;6.282;2022-10-26T04:26:59;9.10;99.90
51825;DHT22;37879;52.986;6.282;2022-10-26T04:29:24;9.20;99.90
51825;DHT22;37879;52.986;6.282;2022-10-26T04:31:50;9.20;99.90
51825;DHT22;37879;52.986;6.282;2022-10-26T04:34:16;9.20;99.90
51825;DHT22;37879;52.986;6.282;2022-10-26T04:36:41;9.30;99.90
51825;DHT22;37879;52.986;6.282;2022-10-26T04:39:07;9.30;99.90
51825;DHT22;37879;52.986;6.282;2022-10-26T04:41:33;9.30;99.90
51825;DHT22;37879;52.986;6.282;2022-10-26T04:43:58;9.40;99.90
51825;DHT22;37879;52.986;6.282;2022-10-26T04:46:24;9.40;99.90
51825;DHT22;37879;52.986;6.282;2022-10-26T04:48:50;9.50;99.90
51825;DHT22;37879;52.986;6.282;2022-10-26T04:51:15;9.50;99.90
51825;DHT22;37879;52.986;6.282;2022-10-26T04:53:41;9.50;99.90
51825;DHT22;37879;52.986;6.282;2022-10-26T04:56:07;9.60;99.90
51825;DHT22;37879;52.986;6.282;2022-10-26T04:58:33;9.60;99.90
51825;DHT22;37879;52.986;6.282;2022-10-26T05:01:00;9.60;99.90
51825;DHT22;37879;52.986;6.282;2022-10-26T05:03:26;9.60;99.90
51825;DHT22;37879;52.986;6.282;2022-10-26T05:05:52;9.80;99.90
51825;DHT22;37879;52.986;6.282;2022-10-26T05:08:18;9.70;99.90
51825;DHT22;37879;52.986;6.282;2022-10-26T05:10:48;9.70;99.90
51825;DHT22;37879;52.986;6.282;2022-10-26T05:13:14;9.80;99.90
51825;DHT22;37879;52.986;6.282;2022-10-26T05:15:40;9.80;99.90
51825;DHT22;37879;52.986;6.282;2022-10-26T05:18:06;9.80;99.90
51825;DHT22;37879;52.986;6.282;2022-10-26T05:20:34;9.90;99.90
51825;DHT22;37879;52.986;6.282;2022-10-26T05:23:02;9.90;99.90
51825;DHT22;37879;52.986;6.282;2022-10-26T05:25:31;9.90;99.90
51825;DHT22;37879;52.986;6.282;2022-10-26T05:27:57;9.90;99.90
51825;DHT22;37879;52.986;6.282;2022-10-26T05:30:23;9.90;99.90
51825;DHT22;37879;52.986;6.282;2022-10-26T05:32:55;9.90;99.90
51825;DHT22;37879;52.986;6.282;2022-10-26T05:35:22;10.00;99.90
51825;DHT22;37879;52.986;6.282;2022-10-26T05:37:47;10.00;99.90
51825;DHT22;37879;52.986;6.282;2022-10-26T05:40:13;10.00;99.90
51825;DHT22;37879;52.986;6.282;2022-10-26T05:42:40;10.00;99.90
51825;DHT22;37879;52.986;6.282;2022-10-26T05:45:05;10.10;99.90
51825;DHT22;37879;52.986;6.282;2022-10-26T05:47:31;10.10;99.90
51825;DHT22;37879;52.986;6.282;2022-10-26T05:49:57;10.10;99.90
51825;DHT22;37879;52.986;6.282;2022-10-26T05:52:22;10.10;99.90
51825;DHT22;37879;52.986;6.282;2022-10-26T05:54:48;10.20;99.90
51825;DHT22;37879;52.986;6.282;2022-10-26T05:57:14;10.20;99.90
51825;DHT22;37879;52.986;6.282;2022-10-26T05:59:40;10.10;99.90
51825;DHT22;37879;52.986;6.282;2022-10-26T06:02:17;10.20;99.90
51825;DHT22;37879;52.986;6.282;2022-10-26T06:04:47;10.20;99.90
51825;DHT22;37879;52.986;6.282;2022-10-26T06:07:16;10.20;99.90
51825;DHT22;37879;52.986;6.282;2022-10-26T06:09:42;10.20;99.90
51825;DHT22;37879;52.986;6.282;2022-10-26T06:12:09;10.20;99.90
51825;DHT22;37879;52.986;6.282;2022-10-26T06:14:35;10.30;99.90
51825;DHT22;37879;52.986;6.282;2022-10-26T06:20:18;10.30;99.90
51825;DHT22;37879;52.986;6.282;2022-10-26T06:23:19;10.30;99.90
51825;DHT22;37879;52.986;6.282;2022-10-26T06:31:12;10.40;99.90
51825;DHT22;37879;52.986;6.282;2022-10-26T06:33:38;10.40;99.90
51825;DHT22;37879;52.986;6.282;2022-10-26T06:36:22;10.40;99.90
51825;DHT22;37879;52.986;6.282;2022-10-26T06:38:57;10.40;99.90
51825;DHT22;37879;52.986;6.282;2022-10-26T06:41:25;10.40;99.90
51825;DHT22;37879;52.986;6.282;2022-10-26T06:43:51;10.40;99.90
51825;DHT22;37879;52.986;6.282;2022-10-26T06:51:56;10.50;99.90
51825;DHT22;37879;52.986;6.282;2022-10-26T06:57:21;10.60;99.90
51825;DHT22;37879;52.986;6.282;2022-10-26T06:59:55;10.60;99.90
51825;DHT22;37879;52.986;6.282;2022-10-26T07:02:21;10.60;99.90
51825;DHT22;37879;52.986;6.282;2022-10-26T07:04:47;10.70;99.90
51825;DHT22;37879;52.986;6.282;2022-10-26T07:07:21;10.70;99.90
51825;DHT22;37879;52.986;6.282;2022-10-26T07:09:48;10.70;99.90
51825;DHT22;37879;52.986;6.282;2022-10-26T07:12:14;10.70;99.90
51825;DHT22;37879;52.986;6.282;2022-10-26T07:14:39;10.80;99.90
51825;DHT22;37879;52.986;6.282;2022-10-26T07:17:05;10.80;99.90
51825;DHT22;37879;52.986;6.282;2022-10-26T07:19:31;10.80;99.90
51825;DHT22;37879;52.986;6.282;2022-10-26T07:21:57;10.90;99.90
51825;DHT22;37879;52.986;6.282;2022-10-26T07:24:29;10.90;99.90
51825;DHT22;37879;52.986;6.282;2022-10-26T07:26:57;11.00;99.90
51825;DHT22;37879;52.986;6.282;2022-10-26T07:29:24;11.20;99.90
51825;DHT22;37879;52.986;6.282;2022-10-26T07:31:50;11.10;99.90
51825;DHT22;37879;52.986;6.282;2022-10-26T07:34:16;11.20;99.90
51825;DHT22;37879;52.986;6.282;2022-10-26T07:36:42;11.20;99.90
51825;DHT22;37879;52.986;6.282;2022-10-26T07:39:08;11.30;99.90
51825;DHT22;37879;52.986;6.282;2022-10-26T07:41:34;11.30;99.90
51825;DHT22;37879;52.986;6.282;2022-10-26T07:44:00;11.40;99.90
51825;DHT22;37879;52.986;6.282;2022-10-26T07:46:26;11.40;99.90
51825;DHT22;37879;52.986;6.282;2022-10-26T07:48:52;11.50;99.90
51825;DHT22;37879;52.986;6.282;2022-10-26T07:51:18;11.50;99.90
51825;DHT22;37879;52.986;6.282;2022-10-26T07:53:44;11.50;99.90
51825;DHT22;37879;52.986;6.282;2022-10-26T07:56:10;11.60;99.90
51825;DHT22;37879;52.986;6.282;2022-10-26T07:58:37;11.60;99.90
51825;DHT22;37879;52.986;6.282;2022-10-26T08:01:08;11.70;99.90
51825;DHT22;37879;52.986;6.282;2022-10-26T08:03:34;11.70;99.90
51825;DHT22;37879;52.986;6.282;2022-10-26T08:06:00;11.70;99.90
51825;DHT22;37879;52.986;6.282;2022-10-26T08:08:26;11.70;99.90
51825;DHT22;37879;52.986;6.282;2022-10-26T08:10:51;11.70;99.90
51825;DHT22;37879;52.986;6.282;2022-10-26T08:13:17;11.70;99.90
51825;DHT22;37879;52.986;6.282;2022-10-26T08:15:43;11.70;99.90
51825;DHT22;37879;52.986;6.282;2022-10-26T08:18:09;11.80;99.90
51825;DHT22;37879;52.986;6.282;2022-10-26T08:20:35;11.80;99.90
51825;DHT22;37879;52.986;6.282;2022-10-26T08:23:01;11.90;99.90
51825;DHT22;37879;52.986;6.282;2022-10-26T08:25:31;11.90;99.90
51825;DHT22;37879;52.986;6.282;2022-10-26T08:28:02;12.00;99.90
51825;DHT22;37879;52.986;6.282;2022-10-26T08:30:31;12.10;99.90
51825;DHT22;37879;52.986;6.282;2022-10-26T08:33:02;12.10;99.90
51825;DHT22;37879;52.986;6.282;2022-10-26T08:35:29;12.20;99.90
51825;DHT22;37879;52.986;6.282;2022-10-26T08:37:55;12.20;99.90
51825;DHT22;37879;52.986;6.282;2022-10-26T08:40:27;12.30;99.90
51825;DHT22;37879;52.986;6.282;2022-10-26T08:45:53;12.40;99.90
51825;DHT22;37879;52.986;6.282;2022-10-26T08:48:24;12.40;99.90
51825;DHT22;37879;52.986;6.282;2022-10-26T08:50:54;12.50;99.90
51825;DHT22;37879;52.986;6.282;2022-10-26T08:58:39;12.60;99.90
51825;DHT22;37879;52.986;6.282;2022-10-26T09:01:07;12.70;99.90
51825;DHT22;37879;52.986;6.282;2022-10-26T09:03:33;12.70;99.90
51825;DHT22;37879;52.986;6.282;2022-10-26T09:06:19;12.80;99.90
51825;DHT22;37879;52.986;6.282;2022-10-26T09:14:38;13.00;99.90
51825;DHT22;37879;52.986;6.282;2022-10-26T09:23:23;13.30;99.90
51825;DHT22;37879;52.986;6.282;2022-10-26T09:26:01;13.50;99.90
51825;DHT22;37879;52.986;6.282;2022-10-26T09:28:34;13.70;99.90
51825;DHT22;37879;52.986;6.282;2022-10-26T09:31:03;13.80;99.90
51825;DHT22;37879;52.986;6.282;2022-10-26T09:33:32;14.00;99.90
51825;DHT22;37879;52.986;6.282;2022-10-26T09:36:05;14.10;99.90
51825;DHT22;37879;52.986;6.282;2022-10-26T09:39:19;14.20;99.90
51825;DHT22;37879;52.986;6.282;2022-10-26T09:41:55;14.30;99.90
51825;DHT22;37879;52.986;6.282;2022-10-26T09:44:24;14.40;99.90
51825;DHT22;37879;52.986;6.282;2022-10-26T09:46:56;14.40;99.90
51825;DHT22;37879;52.986;6.282;2022-10-26T09:49:41;14.50;99.90
51825;DHT22;37879;52.986;6.282;2022-10-26T09:52:10;14.50;99.90
51825;DHT22;37879;52.986;6.282;2022-10-26T09:54:35;14.60;99.90
51825;DHT22;37879;52.986;6.282;2022-10-26T09:57:01;14.70;99.90
51825;DHT22;37879;52.986;6.282;2022-10-26T09:59:29;14.80;99.90
51825;DHT22;37879;52.986;6.282;2022-10-26T10:01:58;14.80;99.90
51825;DHT22;37879;52.986;6.282;2022-10-26T10:04:29;14.90;99.90
51825;DHT22;37879;52.986;6.282;2022-10-26T10:09:27;15.00;99.90
51825;DHT22;37879;52.986;6.282;2022-10-26T10:11:55;15.00;99.90
51825;DHT22;37879;52.986;6.282;2022-10-26T10:14:32;15.00;99.90
51825;DHT22;37879;52.986;6.282;2022-10-26T10:17:03;15.10;99.90
51825;DHT22;37879;52.986;6.282;2022-10-26T10:19:34;15.20;99.90
51825;DHT22;37879;52.986;6.282;2022-10-26T10:22:08;15.40;99.90
51825;DHT22;37879;52.986;6.282;2022-10-26T10:24:36;15.40;99.90
51825;DHT22;37879;52.986;6.282;2022-10-26T10:29:56;15.70;99.90
51825;DHT22;37879;52.986;6.282;2022-10-26T10:34:51;15.90;99.90
51825;DHT22;37879;52.986;6.282;2022-10-26T10:37:39;15.90;99.90
51825;DHT22;37879;52.986;6.282;2022-10-26T10:40:16;16.00;99.90
51825;DHT22;37879;52.986;6.282;2022-10-26T10:42:45;16.10;99.90
51825;DHT22;37879;52.986;6.282;2022-10-26T10:45:22;16.20;99.90
51825;DHT22;37879;52.986;6.282;2022-10-26T10:48:12;16.30;99.90
51825;DHT22;37879;52.986;6.282;2022-10-26T10:50:53;16.50;99.90
51825;DHT22;37879;52.986;6.282;2022-10-26T10:53:35;16.70;99.90
51825;DHT22;37879;52.986;6.282;2022-10-26T11:04:51;17.00;99.90
51825;DHT22;37879;52.986;6.282;2022-10-26T11:07:20;17.00;99.90
51825;DHT22;37879;52.986;6.282;2022-10-26T11:09:47;17.00;99.90
51825;DHT22;37879;52.986;6.282;2022-10-26T11:12:17;17.00;99.90
51825;DHT22;37879;52.986;6.282;2022-10-26T11:15:05;17.00;99.90
51825;DHT22;37879;52.986;6.282;2022-10-26T11:18:03;16.90;99.90
51825;DHT22;37879;52.986;6.282;2022-10-26T11:20:38;16.90;99.90
51825;DHT22;37879;52.986;6.282;2022-10-26T11:23:29;16.90;99.90
51825;DHT22;37879;52.986;6.282;2022-10-26T11:26:12;16.90;99.90
51825;DHT22;37879;52.986;6.282;2022-10-26T11:28:41;16.90;99.90
51825;DHT22;37879;52.986;6.282;2022-10-26T11:31:14;16.90;99.90
51825;DHT22;37879;52.986;6.282;2022-10-26T11:33:44;16.90;99.90
51825;DHT22;37879;52.986;6.282;2022-10-26T11:36:15;16.90;99.90
51825;DHT22;37879;52.986;6.282;2022-10-26T11:38:48;16.80;99.90
51825;DHT22;37879;52.986;6.282;2022-10-26T11:41:28;16.90;99.90
51825;DHT22;37879;52.986;6.282;2022-10-26T11:44:09;16.80;99.90
51825;DHT22;37879;52.986;6.282;2022-10-26T11:46:51;16.70;99.90
51825;DHT22;37879;52.986;6.282;2022-10-26T11:49:41;16.70;99.90
51825;DHT22;37879;52.986;6.282;2022-10-26T11:52:23;16.70;99.90
51825;DHT22;37879;52.986;6.282;2022-10-26T11:55:01;16.70;99.90
51825;DHT22;37879;52.986;6.282;2022-10-26T11:57:32;16.70;99.90
51825;DHT22;37879;52.986;6.282;2022-10-26T12:00:15;16.80;99.90
51825;DHT22;37879;52.986;6.282;2022-10-26T12:02:49;16.90;99.90
51825;DHT22;37879;52.986;6.282;2022-10-26T12:07:56;17.10;99.90
51825;DHT22;37879;52.986;6.282;2022-10-26T12:10:32;17.20;99.90
51825;DHT22;37879;52.986;6.282;2022-10-26T12:13:00;17.20;99.90
51825;DHT22;37879;52.986;6.282;2022-10-26T12:18:25;17.30;99.90
51825;DHT22;37879;52.986;6.282;2022-10-26T12:20:57;17.40;99.90
51825;DHT22;37879;52.986;6.282;2022-10-26T12:23:32;17.40;99.90
51825;DHT22;37879;52.986;6.282;2022-10-26T12:34:13;17.50;99.90
51825;DHT22;37879;52.986;6.282;2022-10-26T12:39:33;17.60;99.90
51825;DHT22;37879;52.986;6.282;2022-10-26T12:52:53;17.70;99.90
51825;DHT22;37879;52.986;6.282;2022-10-26T12:58:26;17.60;99.90
51825;DHT22;37879;52.986;6.282;2022-10-26T13:03:53;17.60;99.90
51825;DHT22;37879;52.986;6.282;2022-10-26T13:06:47;17.50;99.90
51825;DHT22;37879;52.986;6.282;2022-10-26T13:09:26;17.50;99.90
51825;DHT22;37879;52.986;6.282;2022-10-26T13:11:54;17.40;99.90
51825;DHT22;37879;52.986;6.282;2022-10-26T13:14:37;17.40;99.90
51825;DHT22;37879;52.986;6.282;2022-10-26T13:17:06;17.40;99.90
51825;DHT22;37879;52.986;6.282;2022-10-26T13:19:58;17.40;99.90
51825;DHT22;37879;52.986;6.282;2022-10-26T13:22:24;17.40;99.90
51825;DHT22;37879;52.986;6.282;2022-10-26T13:25:02;17.40;99.90
51825;DHT22;37879;52.986;6.282;2022-10-26T13:32:35;17.50;99.90
51825;DHT22;37879;52.986;6.282;2022-10-26T13:35:02;17.50;99.90
51825;DHT22;37879;52.986;6.282;2022-10-26T13:37:31;17.50;99.90
51825;DHT22;37879;52.986;6.282;2022-10-26T13:39:58;17.50;99.90
51825;DHT22;37879;52.986;6.282;2022-10-26T13:42:44;17.50;99.90
51825;DHT22;37879;52.986;6.282;2022-10-26T13:45:19;17.50;99.90
51825;DHT22;37879;52.986;6.282;2022-10-26T13:50:45;17.50;99.90
51825;DHT22;37879;52.986;6.282;2022-10-26T13:53:38;17.50;99.90
51825;DHT22;37879;52.986;6.282;2022-10-26T13:59:21;17.50;99.90
51825;DHT22;37879;52.986;6.282;2022-10-26T14:04:50;17.50;99.90
51825;DHT22;37879;52.986;6.282;2022-10-26T14:07:19;17.60;99.90
51825;DHT22;37879;52.986;6.282;2022-10-26T14:09:55;17.70;99.90
51825;DHT22;37879;52.986;6.282;2022-10-26T14:12:23;17.70;99.90
51825;DHT22;37879;52.986;6.282;2022-10-26T14:14:50;17.70;99.90
51825;DHT22;37879;52.986;6.282;2022-10-26T14:17:21;17.60;99.90
51825;DHT22;37879;52.986;6.282;2022-10-26T14:19:50;17.60;99.90
51825;DHT22;37879;52.986;6.282;2022-10-26T14:22:20;17.50;99.90
51825;DHT22;37879;52.986;6.282;2022-10-26T14:24:51;17.40;99.90
51825;DHT22;37879;52.986;6.282;2022-10-26T14:27:23;17.40;99.90
51825;DHT22;37879;52.986;6.282;2022-10-26T14:29:53;17.30;99.90
51825;DHT22;37879;52.986;6.282;2022-10-26T14:32:30;17.30;99.90
51825;DHT22;37879;52.986;6.282;2022-10-26T14:35:00;17.20;99.90
51825;DHT22;37879;52.986;6.282;2022-10-26T14:37:59;17.10;99.90
51825;DHT22;37879;52.986;6.282;2022-10-26T14:40:29;17.00;99.90
51825;DHT22;37879;52.986;6.282;2022-10-26T14:43:00;17.00;99.90
51825;DHT22;37879;52.986;6.282;2022-10-26T14:45:35;16.90;99.90
51825;DHT22;37879;52.986;6.282;2022-10-26T14:48:03;16.80;99.90
51825;DHT22;37879;52.986;6.282;2022-10-26T14:50:31;16.80;99.90
51825;DHT22;37879;52.986;6.282;2022-10-26T14:53:12;16.70;99.90
51825;DHT22;37879;52.986;6.282;2022-10-26T14:55:49;16.60;99.90
51825;DHT22;37879;52.986;6.282;2022-10-26T14:58:25;16.50;99.90
51825;DHT22;37879;52.986;6.282;2022-10-26T15:03:41;16.50;99.90
51825;DHT22;37879;52.986;6.282;2022-10-26T15:06:39;16.40;99.90
51825;DHT22;37879;52.986;6.282;2022-10-26T15:09:05;16.40;99.90
51825;DHT22;37879;52.986;6.282;2022-10-26T15:11:40;16.40;99.90
51825;DHT22;37879;52.986;6.282;2022-10-26T15:14:10;16.40;99.90
51825;DHT22;37879;52.986;6.282;2022-10-26T15:16:37;16.40;99.90
51825;DHT22;37879;52.986;6.282;2022-10-26T15:19:10;16.40;99.90
51825;DHT22;37879;52.986;6.282;2022-10-26T15:21:45;16.40;99.90
51825;DHT22;37879;52.986;6.282;2022-10-26T15:26:49;16.40;99.90
51825;DHT22;37879;52.986;6.282;2022-10-26T15:32:14;16.40;99.90
51825;DHT22;37879;52.986;6.282;2022-10-26T15:34:41;16.40;99.90
51825;DHT22;37879;52.986;6.282;2022-10-26T15:37:07;16.30;99.90
51825;DHT22;37879;52.986;6.282;2022-10-26T15:39:32;16.30;99.90
51825;DHT22;37879;52.986;6.282;2022-10-26T15:41:58;16.20;99.90
51825;DHT22;37879;52.986;6.282;2022-10-26T15:44:24;16.20;99.90
51825;DHT22;37879;52.986;6.282;2022-10-26T15:46:50;16.20;99.90
51825;DHT22;37879;52.986;6.282;2022-10-26T15:49:18;16.10;99.90
51825;DHT22;37879;52.986;6.282;2022-10-26T15:51:45;16.10;99.90
51825;DHT22;37879;52.986;6.282;2022-10-26T15:54:11;16.10;99.90
51825;DHT22;37879;52.986;6.282;2022-10-26T15:56:37;16.10;99.90
51825;DHT22;37879;52.986;6.282;2022-10-26T15:59:16;16.10;99.90
51825;DHT22;37879;52.986;6.282;2022-10-26T16:01:42;16.10;99.90
51825;DHT22;37879;52.986;6.282;2022-10-26T16:04:09;16.10;99.90
51825;DHT22;37879;52.986;6.282;2022-10-26T16:06:37;16.10;99.90
51825;DHT22;37879;52.986;6.282;2022-10-26T16:09:06;16.10;99.90
51825;DHT22;37879;52.986;6.282;2022-10-26T16:11:32;16.10;99.90
51825;DHT22;37879;52.986;6.282;2022-10-26T16:13:58;16.10;99.90
51825;DHT22;37879;52.986;6.282;2022-10-26T16:16:23;16.10;99.90
51825;DHT22;37879;52.986;6.282;2022-10-26T16:18:54;16.10;99.90
51825;DHT22;37879;52.986;6.282;2022-10-26T16:21:21;16.10;99.90
51825;DHT22;37879;52.986;6.282;2022-10-26T16:23:51;16.10;99.90
51825;DHT22;37879;52.986;6.282;2022-10-26T16:26:17;16.10;99.90
51825;DHT22;37879;52.986;6.282;2022-10-26T16:28:43;16.10;99.90
51825;DHT22;37879;52.986;6.282;2022-10-26T16:31:13;16.10;99.90
51825;DHT22;37879;52.986;6.282;2022-10-26T16:33:40;16.10;99.90
51825;DHT22;37879;52.986;6.282;2022-10-26T16:36:08;16.20;99.90
51825;DHT22;37879;52.986;6.282;2022-10-26T16:38:34;16.10;99.90
51825;DHT22;37879;52.986;6.282;2022-10-26T16:41:08;16.10;99.90
51825;DHT22;37879;52.986;6.282;2022-10-26T16:43:36;16.10;99.90
51825;DHT22;37879;52.986;6.282;2022-10-26T16:46:14;16.10;99.90
51825;DHT22;37879;52.986;6.282;2022-10-26T16:48:42;16.10;99.90
51825;DHT22;37879;52.986;6.282;2022-10-26T16:53:38;16.00;99.90
51825;DHT22;37879;52.986;6.282;2022-10-26T16:56:10;15.90;99.90
51825;DHT22;37879;52.986;6.282;2022-10-26T16:58:36;15.90;99.90
51825;DHT22;37879;52.986;6.282;2022-10-26T17:01:02;15.80;99.90
51825;DHT22;37879;52.986;6.282;2022-10-26T17:03:28;15.70;99.90
51825;DHT22;37879;52.986;6.282;2022-10-26T17:05:59;15.70;99.90
51825;DHT22;37879;52.986;6.282;2022-10-26T17:08:25;15.50;99.90
51825;DHT22;37879;52.986;6.282;2022-10-26T17:10:52;15.50;99.90
51825;DHT22;37879;52.986;6.282;2022-10-26T17:13:18;15.50;99.90
51825;DHT22;37879;52.986;6.282;2022-10-26T17:15:44;15.40;99.90
51825;DHT22;37879;52.986;6.282;2022-10-26T17:18:10;15.40;99.90
51825;DHT22;37879;52.986;6.282;2022-10-26T17:20:37;15.40;99.90
51825;DHT22;37879;52.986;6.282;2022-10-26T17:23:03;15.40;99.90
51825;DHT22;37879;52.986;6.282;2022-10-26T17:25:33;15.30;99.90
51825;DHT22;37879;52.986;6.282;2022-10-26T17:27:59;15.30;99.90
51825;DHT22;37879;52.986;6.282;2022-10-26T17:30:27;15.30;99.90
51825;DHT22;37879;52.986;6.282;2022-10-26T17:32:52;15.20;99.90
51825;DHT22;37879;52.986;6.282;2022-10-26T17:35:18;15.10;99.90
51825;DHT22;37879;52.986;6.282;2022-10-26T17:37:44;15.10;99.90
51825;DHT22;37879;52.986;6.282;2022-10-26T17:40:10;15.00;99.90
51825;DHT22;37879;52.986;6.282;2022-10-26T17:42:36;15.00;99.90
51825;DHT22;37879;52.986;6.282;2022-10-26T17:45:02;14.90;99.90
51825;DHT22;37879;52.986;6.282;2022-10-26T17:47:27;14.80;99.90
51825;DHT22;37879;52.986;6.282;2022-10-26T17:49:53;14.80;99.90
51825;DHT22;37879;52.986;6.282;2022-10-26T17:52:19;14.70;99.90
51825;DHT22;37879;52.986;6.282;2022-10-26T17:54:44;14.70;99.90
51825;DHT22;37879;52.986;6.282;2022-10-26T17:57:10;14.60;99.90
51825;DHT22;37879;52.986;6.282;2022-10-26T17:59:36;14.60;99.90
51825;DHT22;37879;52.986;6.282;2022-10-26T18:02:01;14.60;99.90
51825;DHT22;37879;52.986;6.282;2022-10-26T18:04:27;14.60;99.90
51825;DHT22;37879;52.986;6.282;2022-10-26T18:06:52;14.50;99.90
51825;DHT22;37879;52.986;6.282;2022-10-26T18:09:19;14.50;99.90
51825;DHT22;37879;52.986;6.282;2022-10-26T18:11:45;14.50;99.90
51825;DHT22;37879;52.986;6.282;2022-10-26T18:14:11;14.50;99.90
51825;DHT22;37879;52.986;6.282;2022-10-26T18:16:38;14.40;99.90